Terminal Aerodrome Forecast
Issued by NWS

Home | Current Version | Previous Version | Text Only | Print | Product List | Glossary On
Versions: 1 2 3 4 5 6 7 8 9 10 11 12 13 14 15
000
FTUS46 KMTR 261124
TAFOAK
TAF
KOAK 261124Z 2612/2718 25006KT P6SM SCT018 BKN200
     FM261800 19005KT P6SM FEW020 BKN200
     FM270200 24008KT P6SM -RA BKN050 OVC080
     FM270800 26008KT 6SM -RA BR BKN020 OVC030
     FM271200 28008KT P6SM OVC030=

USA.gov is the U.S. government's official web portal to all federal, state and local government web resources and services.